Time;durP1;ratioP1;P1;durP2;ratioP2;P2;SDS_P1;SDS_P2;PMS_P1;PMS_P2;Temp;Humidity;BMP_temperature;BMP_pressure;BME280_temperature;BME280_humidity;BME280_pressure;Samples;Min_cycle;Max_cycle;Signal;HPM_P1;HPM_P2
2023/06/03 00:02:15;;;;;;;14.82;8.73;;;;;;;12.64;89.56;101904.91;5283269;28;20056;-67
2023/06/03 00:04:47;;;;;;;15.63;10.67;;;;;;;12.45;89.37;101898.84;5283449;28;20448;-67
2023/06/03 00:07:18;;;;;;;15.37;8.57;;;;;;;12.62;89.72;101897.91;5283397;28;20458;-67
2023/06/03 00:09:49;;;;;;;17.47;14.23;;;;;;;12.56;89.65;101902.31;5283404;28;20112;-67
2023/06/03 00:12:21;;;;;;;19.73;12.37;;;;;;;12.52;89.80;101904.94;5283439;28;20464;-67
2023/06/03 00:14:52;;;;;;;14.33;8.93;;;;;;;12.66;90.04;101892.69;5283089;28;20392;-69
2023/06/03 00:17:26;;;;;;;19.07;8.83;;;;;;;12.52;89.78;101897.09;5283580;28;20041;-68
2023/06/03 00:20:06;;;;;;;15.05;8.90;;;;;;;12.48;90.39;101890.13;5282013;28;20065;-67
2023/06/03 00:22:38;;;;;;;21.88;11.80;;;;;;;12.38;90.82;101898.00;5283394;28;20055;-68
2023/06/03 00:25:11;;;;;;;15.60;8.38;;;;;;;12.33;90.13;101899.75;5281492;28;20068;-68
2023/06/03 00:27:43;;;;;;;16.73;7.72;;;;;;;12.17;90.79;101903.25;5283165;28;20037;-67
2023/06/03 00:30:15;;;;;;;18.13;8.33;;;;;;;12.25;91.14;101904.09;5283261;28;20060;-67
2023/06/03 00:32:46;;;;;;;15.27;9.73;;;;;;;12.10;90.81;101904.16;5283121;28;20320;-67
2023/06/03 00:35:17;;;;;;;16.77;8.37;;;;;;;12.17;91.04;101908.47;5283064;28;20040;-67
2023/06/03 00:37:49;;;;;;;19.80;9.07;;;;;;;12.14;91.34;101904.16;5281925;28;20035;-67
2023/06/03 00:40:20;;;;;;;19.10;8.30;;;;;;;12.10;91.36;101904.16;5281776;28;20033;-68
2023/06/03 00:42:51;;;;;;;18.57;8.27;;;;;;;12.07;90.97;101902.41;5281525;28;20040;-67
2023/06/03 00:45:23;;;;;;;18.67;8.60;;;;;;;12.01;91.31;101903.28;5282254;28;20040;-68
2023/06/03 00:47:54;;;;;;;16.33;8.23;;;;;;;11.93;90.88;101902.41;5282958;28;20033;-68
2023/06/03 00:50:26;;;;;;;13.97;7.63;;;;;;;11.92;91.28;101908.50;5282652;28;20117;-67
2023/06/03 00:52:58;;;;;;;20.57;8.10;;;;;;;11.86;91.06;101898.91;5283003;28;20036;-67
2023/06/03 00:55:30;;;;;;;20.73;7.75;;;;;;;11.83;91.37;101901.53;5283031;28;20123;-67
2023/06/03 00:58:01;;;;;;;13.70;7.97;;;;;;;11.84;91.17;101900.63;5282855;28;20115;-66
2023/06/03 01:00:33;;;;;;;18.17;7.43;;;;;;;11.67;91.10;101903.25;5283148;28;20055;-67
2023/06/03 01:03:04;;;;;;;13.47;7.37;;;;;;;11.68;91.36;101899.75;5282851;28;20028;-67
2023/06/03 01:05:35;;;;;;;17.40;7.87;;;;;;;11.64;91.02;101907.59;5282776;28;20040;-68
2023/06/03 01:08:33;;;;;;;22.23;8.67;;;;;;;11.75;91.17;101907.59;5283956;28;20037;-69
2023/06/03 01:11:15;;;;;;;16.55;8.40;;;;;;;11.64;91.77;101903.25;5284769;28;20032;-68
2023/06/03 01:13:53;;;;;;;15.50;7.85;;;;;;;11.57;91.84;101898.88;5286379;28;20040;-68
2023/06/03 01:16:26;;;;;;;17.10;7.85;;;;;;;11.42;91.74;101899.75;5286675;28;20103;-68
2023/06/03 01:18:58;;;;;;;;;;;;;;;11.56;89.96;101899.78;5287134;28;20043;-66
2023/06/03 01:21:34;;;;;;;12.00;7.18;;;;;;;11.43;91.29;101901.50;5286213;28;19912;-67
2023/06/03 01:24:05;;;;;;;12.82;7.35;;;;;;;11.36;91.73;101897.13;5286623;28;20464;-68
2023/06/03 01:26:37;;;;;;;12.30;7.43;;;;;;;11.35;91.52;101900.63;5285984;28;20078;-69
2023/06/03 01:29:08;;;;;;;16.10;7.80;;;;;;;11.33;91.89;101897.09;5286338;28;20445;-68
2023/06/03 01:31:40;;;;;;;15.63;8.63;;;;;;;11.32;91.77;101896.25;5284921;28;20032;-68
2023/06/03 01:34:11;;;;;;;20.03;9.00;;;;;;;11.15;91.45;101897.06;5286032;28;20060;-67
2023/06/03 01:36:43;;;;;;;16.50;8.33;;;;;;;11.16;92.41;101904.91;5286294;28;20037;-67
2023/06/03 01:39:15;;;;;;;15.70;8.10;;;;;;;11.05;92.02;101907.47;5286230;28;20028;-67
2023/06/03 01:41:47;;;;;;;21.33;7.78;;;;;;;11.03;92.16;101898.78;5278155;28;20076;-68
2023/06/03 01:44:19;;;;;;;15.85;7.65;;;;;;;11.03;92.12;101895.28;5264583;28;20035;-68
2023/06/03 01:46:50;;;;;;;14.67;8.33;;;;;;;11.03;92.46;101898.78;5278965;28;20206;-68
2023/06/03 01:49:22;;;;;;;12.80;7.80;;;;;;;10.95;92.75;101896.16;5264917;28;20025;-68
2023/06/03 01:51:53;;;;;;;15.70;9.03;;;;;;;10.90;92.46;101903.09;5264121;28;20040;-68
2023/06/03 01:54:25;;;;;;;17.13;8.90;;;;;;;10.83;92.79;101901.31;5263830;28;20086;-67
2023/06/03 01:56:57;;;;;;;20.90;7.82;;;;;;;10.84;93.05;101897.84;5264980;28;20113;-68
2023/06/03 01:59:28;;;;;;;17.67;9.13;;;;;;;10.79;93.08;101904.78;5264965;28;20163;-67
2023/06/03 02:02:00;;;;;;;14.40;7.97;;;;;;;10.80;93.36;101897.81;5264706;28;20078;-68
2023/06/03 02:04:31;;;;;;;13.90;7.47;;;;;;;10.89;93.37;101895.25;5264854;28;20044;-67
2023/06/03 02:07:03;;;;;;;16.60;8.30;;;;;;;10.87;93.54;101902.22;5264383;28;20070;-67
2023/06/03 02:09:34;;;;;;;16.83;8.20;;;;;;;10.70;93.15;101905.59;5264898;28;20443;-68
2023/06/03 02:12:06;;;;;;;14.20;8.23;;;;;;;10.64;93.76;101905.59;5264793;28;20271;-67
2023/06/03 02:14:38;;;;;;;16.50;8.55;;;;;;;10.65;94.02;101899.50;5264319;28;20112;-67
2023/06/03 02:17:11;;;;;;;18.67;8.57;;;;;;;10.71;93.98;101893.44;5264682;28;20041;-69
2023/06/03 02:19:42;;;;;;;14.23;7.57;;;;;;;10.72;94.08;101892.56;5264257;28;20029;-68
2023/06/03 02:22:14;;;;;;;18.63;8.27;;;;;;;10.64;94.15;101896.88;5264641;28;20061;-68
2023/06/03 02:24:49;;;;;;;17.37;8.77;;;;;;;10.66;93.91;101900.34;5264268;28;20037;-67
2023/06/03 02:27:24;;;;;;;14.95;7.15;;;;;;;10.54;94.01;101894.22;5264313;28;20299;-66
2023/06/03 02:29:55;;;;;;;13.82;7.60;;;;;;;10.64;93.44;101892.56;5264417;28;20029;-66
2023/06/03 02:32:27;;;;;;;18.33;7.33;;;;;;;10.62;93.71;101894.25;5264150;28;20070;-68
2023/06/03 02:34:58;;;;;;;14.33;7.00;;;;;;;10.56;93.51;101891.63;5264362;28;20052;-68
2023/06/03 02:37:30;;;;;;;18.57;7.03;;;;;;;10.57;93.84;101894.22;5264319;28;20083;-68
2023/06/03 02:40:02;;;;;;;13.63;7.78;;;;;;;10.51;93.84;101899.44;5279504;28;20029;-67
2023/06/03 02:42:33;;;;;;;12.10;7.53;;;;;;;10.59;94.00;101902.06;5264167;28;20025;-67
2023/06/03 02:45:05;;;;;;;15.87;8.37;;;;;;;10.57;94.21;101898.59;5263684;28;20039;-68
2023/06/03 02:47:37;;;;;;;14.68;7.50;;;;;;;10.45;94.09;101908.94;5264167;28;20033;-68
2023/06/03 02:50:08;;;;;;;13.67;6.90;;;;;;;10.49;93.95;101900.28;5264349;28;20488;-69
2023/06/03 02:52:40;;;;;;;17.37;7.23;;;;;;;10.50;93.50;101905.50;5263876;28;20036;-67
2023/06/03 02:55:11;;;;;;;13.23;6.97;;;;;;;10.46;93.03;101906.34;5263877;28;20076;-67
2023/06/03 02:57:42;;;;;;;19.73;7.23;;;;;;;10.45;93.21;101919.38;5263831;28;20049;-68
2023/06/03 03:00:14;;;;;;;13.23;7.00;;;;;;;10.29;93.96;101913.16;5263518;28;20029;-67
2023/06/03 03:02:46;;;;;;;16.02;7.65;;;;;;;10.33;94.34;101907.13;5263744;28;20379;-68
2023/06/03 03:05:18;;;;;;;14.63;8.70;;;;;;;10.34;94.11;101896.72;5263590;28;20029;-68
2023/06/03 03:07:49;;;;;;;13.05;7.40;;;;;;;10.28;93.88;101904.47;5278917;28;20036;-67
2023/06/03 03:10:21;;;;;;;10.73;6.50;;;;;;;10.26;93.91;101902.72;5263526;28;20029;-67
2023/06/03 03:12:52;;;;;;;15.97;8.77;;;;;;;10.27;94.39;101904.47;5263273;28;20025;-68
2023/06/03 03:15:24;;;;;;;13.10;8.00;;;;;;;10.15;94.96;101894.84;5263160;28;20041;-66
2023/06/03 03:17:55;;;;;;;12.53;6.70;;;;;;;10.13;94.83;101905.25;5263524;28;20029;-68
2023/06/03 03:20:29;;;;;;;10.77;7.20;;;;;;;10.12;94.98;101910.44;5263421;28;20033;-67
2023/06/03 03:23:02;;;;;;;19.30;7.40;;;;;;;10.17;94.98;101912.19;5263231;28;20083;-67
2023/06/03 03:25:34;;;;;;;13.00;6.80;;;;;;;10.10;95.14;101913.03;5262557;28;20049;-66
2023/06/03 03:28:06;;;;;;;10.70;6.95;;;;;;;10.05;95.43;101917.34;5263261;28;20037;-67
2023/06/03 03:30:38;;;;;;;18.55;7.82;;;;;;;10.09;95.50;101913.88;5262264;28;20032;-68
2023/06/03 03:33:09;;;;;;;14.67;7.67;;;;;;;10.06;95.81;101913.84;5263113;28;20060;-67
2023/06/03 03:35:43;;;;;;;10.30;7.57;;;;;;;10.05;96.43;101922.56;5262701;28;20130;-69
2023/06/03 03:38:15;;;;;;;15.68;7.50;;;;;;;9.90;96.66;101915.50;5262980;28;20029;-68
2023/06/03 03:40:46;;;;;;;14.20;7.10;;;;;;;9.97;96.66;101919.03;5262991;28;20068;-67
2023/06/03 03:43:19;;;;;;;9.37;7.00;;;;;;;10.05;96.74;101914.75;5263277;28;20126;-68
2023/06/03 03:45:50;;;;;;;12.30;8.10;;;;;;;9.97;96.82;101924.22;5262514;28;20025;-67
2023/06/03 03:48:27;;;;;;;13.57;7.83;;;;;;;10.00;96.68;101916.44;5262872;28;20052;-68
2023/06/03 03:50:58;;;;;;;16.52;8.43;;;;;;;9.94;96.29;101917.25;5262806;28;20021;-69
2023/06/03 03:53:31;;;;;;;12.43;7.57;;;;;;;9.99;96.33;101923.38;5262787;28;20360;-67
2023/06/03 03:56:03;;;;;;;15.48;7.72;;;;;;;10.00;96.09;101919.06;5262701;28;20040;-67
2023/06/03 03:58:37;;;;;;;14.80;8.03;;;;;;;10.02;96.29;101925.13;5262806;28;20037;-66
2023/06/03 04:01:15;;;;;;;10.75;7.82;;;;;;;9.97;96.16;101929.44;5262558;28;20076;-68
2023/06/03 04:03:49;;;;;;;12.55;7.95;;;;;;;9.96;96.48;101919.88;5262740;28;20033;-68
2023/06/03 04:06:32;;;;;;;10.15;7.05;;;;;;;9.97;97.22;101921.63;5262227;28;20116;-67
2023/06/03 04:09:05;;;;;;;12.23;8.68;;;;;;;10.02;97.03;101927.75;5262495;28;20473;-67
2023/06/03 04:11:41;;;;;;;15.98;8.27;;;;;;;9.94;97.06;101924.22;5262492;28;20029;-68
2023/06/03 04:14:16;;;;;;;15.60;8.18;;;;;;;9.96;97.15;101918.13;5261745;28;20083;-68
2023/06/03 04:16:57;;;;;;;12.20;7.88;;;;;;;9.99;97.17;101925.13;5262334;28;20488;-67
2023/06/03 04:19:36;;;;;;;15.00;7.65;;;;;;;9.95;97.28;101923.31;5262414;28;20059;-68
2023/06/03 04:22:10;;;;;;;12.80;7.82;;;;;;;10.04;97.58;101928.63;5262041;28;20033;-68
2023/06/03 04:24:42;;;;;;;15.80;7.38;;;;;;;10.04;97.08;101924.28;5262030;28;20028;-67
2023/06/03 04:27:14;;;;;;;11.57;7.80;;;;;;;10.11;96.47;101932.13;5261908;28;20063;-67
2023/06/03 04:29:46;;;;;;;11.77;7.53;;;;;;;10.08;96.55;101934.72;5260732;28;20040;-69
2023/06/03 04:32:17;;;;;;;17.73;8.33;;;;;;;10.17;96.79;101932.19;5244579;28;20041;-68
2023/06/03 04:34:50;;;;;;;15.77;8.87;;;;;;;10.17;96.70;101933.06;5262508;28;20352;-68
2023/06/03 04:37:23;;;;;;;12.68;7.32;;;;;;;10.27;96.68;101935.72;5262087;28;20033;-68
2023/06/03 04:39:54;;;;;;;13.25;8.00;;;;;;;10.25;96.16;101937.47;5261930;28;20064;-67
2023/06/03 04:42:26;;;;;;;12.50;7.20;;;;;;;10.28;95.95;101947.91;5264265;28;20428;-68
2023/06/03 04:44:59;;;;;;;10.95;6.85;;;;;;;10.30;95.64;101936.63;5266129;28;20064;-68
2023/06/03 04:47:31;;;;;;;10.35;7.43;;;;;;;10.37;95.23;101932.38;5266464;28;20110;-67
2023/06/03 04:50:04;;;;;;;11.13;7.20;;;;;;;10.46;95.67;101934.16;5281659;28;20052;-68
2023/06/03 04:52:35;;;;;;;;;;;;;;;10.44;95.02;101941.09;5265624;28;20025;-69
2023/06/03 04:55:07;;;;;;;13.07;6.80;;;;;;;10.56;94.17;101944.66;5266341;28;19931;-68
2023/06/03 04:57:38;;;;;;;11.30;7.37;;;;;;;10.60;93.90;101936.84;5265827;28;20124;-68
2023/06/03 05:00:10;;;;;;;13.90;7.27;;;;;;;10.70;93.54;101946.47;5266137;28;20025;-68
2023/06/03 05:02:44;;;;;;;10.33;8.10;;;;;;;10.75;93.18;101936.91;5266192;28;20108;-68
2023/06/03 05:05:16;;;;;;;10.95;7.25;;;;;;;10.82;92.49;101935.22;5265923;28;20037;-67
2023/06/03 05:07:47;;;;;;;14.30;7.77;;;;;;;10.84;91.79;101941.31;5264804;28;20048;-67
2023/06/03 05:10:19;;;;;;;10.87;6.67;;;;;;;10.93;91.86;101936.13;5265865;28;20082;-67
2023/06/03 05:12:50;;;;;;;10.93;5.90;;;;;;;11.02;90.86;101932.69;5266161;28;20427;-68
2023/06/03 05:15:21;;;;;;;9.80;6.57;;;;;;;11.10;89.94;101939.66;5265130;28;20040;-68
2023/06/03 05:17:53;;;;;;;10.73;5.73;;;;;;;11.18;88.63;101941.47;5248300;28;20476;-68
2023/06/03 05:20:24;;;;;;;8.47;6.07;;;;;;;11.20;87.83;101934.50;5265850;28;20068;-66
2023/06/03 05:22:56;;;;;;;10.03;6.30;;;;;;;11.28;88.23;101941.47;5265775;28;20033;-67
2023/06/03 05:25:27;;;;;;;12.90;6.33;;;;;;;11.39;86.57;101945.88;5265216;28;20053;-67
2023/06/03 05:27:59;;;;;;;7.83;5.70;;;;;;;11.44;86.73;101941.53;5265507;28;20071;-67
2023/06/03 05:30:30;;;;;;;7.93;4.93;;;;;;;11.54;85.50;101938.03;5265726;28;20056;-68
2023/06/03 05:33:02;;;;;;;8.60;5.30;;;;;;;11.63;84.45;101945.91;5265777;28;20033;-69
2023/06/03 05:35:33;;;;;;;7.27;5.20;;;;;;;11.70;82.70;101944.16;5265482;28;20120;-68
2023/06/03 05:38:07;;;;;;;12.93;5.33;;;;;;;11.75;81.75;101942.44;5265482;28;20036;-68
2023/06/03 05:40:38;;;;;;;6.05;4.57;;;;;;;11.84;82.04;101954.63;5265541;28;20429;-69
2023/06/03 05:43:09;;;;;;;10.47;4.90;;;;;;;11.91;80.70;101948.53;5265132;28;20116;-68
2023/06/03 05:45:42;;;;;;;9.13;4.90;;;;;;;11.88;82.99;101945.91;5263538;28;20160;-68
2023/06/03 05:48:13;;;;;;;8.93;5.10;;;;;;;12.04;81.95;101944.22;5265223;28;20021;-67
2023/06/03 05:50:50;;;;;;;8.67;5.33;;;;;;;12.16;79.88;101946.81;5265503;28;20029;-67
2023/06/03 05:53:24;;;;;;;9.15;4.85;;;;;;;12.19;80.52;101943.34;5264169;28;20028;-69
2023/06/03 05:55:55;;;;;;;12.88;5.13;;;;;;;12.30;79.30;101941.59;5265029;28;20033;-67
2023/06/03 05:58:27;;;;;;;11.20;4.63;;;;;;;12.37;79.09;101940.69;5263703;28;20029;-68
2023/06/03 06:00:58;;;;;;;8.47;4.40;;;;;;;12.45;77.39;101943.31;5265282;28;20582;-67
2023/06/03 06:03:29;;;;;;;11.53;4.40;;;;;;;12.51;77.24;101945.03;5264961;28;20111;-68
2023/06/03 06:06:01;;;;;;;10.13;4.73;;;;;;;12.56;75.84;101946.75;5263539;28;20033;-68
2023/06/03 06:08:32;;;;;;;11.97;4.13;;;;;;;12.65;74.41;101945.00;5265048;28;20037;-67
2023/06/03 06:11:04;;;;;;;9.40;5.13;;;;;;;12.81;72.68;101945.81;5263342;28;20032;-68
2023/06/03 06:13:35;;;;;;;8.80;4.17;;;;;;;12.87;73.35;101953.66;5264897;28;20141;-67
2023/06/03 06:16:07;;;;;;;9.20;3.87;;;;;;;12.97;71.64;101947.50;5264364;28;20037;-68
2023/06/03 06:18:38;;;;;;;11.73;4.45;;;;;;;13.06;72.77;101950.09;5264645;28;20044;-67
2023/06/03 06:21:10;;;;;;;8.43;4.03;;;;;;;13.13;71.87;101948.31;5264738;28;20037;-67
2023/06/03 06:23:42;;;;;;;12.10;3.63;;;;;;;13.21;70.76;101958.75;5264714;28;20412;-68
2023/06/03 06:26:14;;;;;;;8.45;4.15;;;;;;;13.31;69.50;101957.81;5264376;28;20059;-68
2023/06/03 06:28:46;;;;;;;8.15;4.05;;;;;;;13.40;68.49;101957.78;5264650;28;20025;-66
2023/06/03 06:31:17;;;;;;;11.10;4.03;;;;;;;13.50;69.21;101969.09;5264424;28;20059;-67
2023/06/03 06:33:49;;;;;;;8.70;3.47;;;;;;;13.63;68.50;101964.63;5264555;28;20029;-67
2023/06/03 06:36:26;;;;;;;6.65;3.30;;;;;;;13.78;66.40;101966.28;5264324;28;20060;-67
2023/06/03 06:38:58;;;;;;;7.40;4.00;;;;;;;13.91;66.38;101964.44;5264311;28;20024;-67
2023/06/03 06:41:37;;;;;;;6.63;4.00;;;;;;;13.97;68.41;101974.88;5264569;28;20040;-67
2023/06/03 06:44:09;;;;;;;9.55;3.28;;;;;;;14.00;66.06;101959.97;5262712;28;20063;-68
2023/06/03 06:46:40;;;;;;;6.97;4.13;;;;;;;14.11;64.76;101967.78;5263194;28;20029;-67
2023/06/03 06:49:12;;;;;;;7.40;3.83;;;;;;;14.25;65.23;101958.91;5262238;28;20063;-67
2023/06/03 06:51:43;;;;;;;8.97;3.70;;;;;;;14.35;64.10;101964.06;5263586;28;20500;-67
2023/06/03 06:54:15;;;;;;;8.23;3.67;;;;;;;14.45;61.72;101963.97;5263282;28;20112;-67
2023/06/03 06:56:47;;;;;;;12.05;3.58;;;;;;;14.50;61.82;101970.03;5283668;28;20032;-68
2023/06/03 06:59:18;;;;;;;5.27;3.40;;;;;;;14.66;59.17;101968.16;5284615;28;20476;-68
2023/06/03 07:01:50;;;;;;;6.83;3.20;;;;;;;14.70;60.12;101973.34;5284374;28;20066;-67
2023/06/03 07:04:21;;;;;;;7.33;3.23;;;;;;;14.83;60.38;101967.94;5283287;28;20053;-67
2023/06/03 07:06:53;;;;;;;8.67;4.07;;;;;;;14.88;59.37;101961.78;5281892;28;20038;-68
2023/06/03 07:09:24;;;;;;;7.77;3.37;;;;;;;15.04;57.17;101962.47;5283362;28;20379;-67
2023/06/03 07:11:57;;;;;;;9.07;3.43;;;;;;;15.12;55.12;101959.75;5284047;28;20060;-68
2023/06/03 07:14:29;;;;;;;;;;;;;;;15.24;58.08;101962.19;5283990;28;20071;-67
2023/06/03 07:17:01;;;;;;;7.75;3.00;;;;;;;15.53;55.65;101965.31;5283307;28;19958;-67
2023/06/03 07:19:37;;;;;;;8.40;4.00;;;;;;;15.62;54.73;101957.28;5283758;28;20055;-67
2023/06/03 07:22:09;;;;;;;7.45;3.47;;;;;;;15.71;54.39;101959.75;5283710;28;20086;-68
2023/06/03 07:24:40;;;;;;;8.00;2.60;;;;;;;15.81;52.27;101950.88;5284376;28;20029;-67
2023/06/03 07:27:22;;;;;;;8.27;2.83;;;;;;;15.91;52.95;101959.50;5283638;28;20056;-67
2023/06/03 07:29:57;;;;;;;9.07;2.53;;;;;;;16.14;51.08;101961.72;5283311;28;20475;-68
2023/06/03 07:32:28;;;;;;;6.53;2.95;;;;;;;16.29;48.68;101965.84;5283744;28;20033;-68
2023/06/03 07:35:00;;;;;;;13.10;2.53;;;;;;;16.30;48.97;101958.84;5284313;28;20024;-67
2023/06/03 07:37:32;;;;;;;4.40;2.73;;;;;;;16.36;48.85;101958.72;5284361;28;20240;-67
2023/06/03 07:40:13;;;;;;;7.60;2.60;;;;;;;16.47;48.83;101953.25;5283945;28;20033;-66
2023/06/03 07:42:44;;;;;;;11.93;3.15;;;;;;;16.49;48.71;101960.22;5283394;28;20033;-67
2023/06/03 07:45:16;;;;;;;4.90;2.78;;;;;;;16.72;48.00;101954.50;5282150;28;20472;-67
2023/06/03 07:47:47;;;;;;;5.50;2.90;;;;;;;16.81;44.36;101956.13;5283819;28;20093;-67
2023/06/03 07:50:26;;;;;;;8.27;3.13;;;;;;;17.04;45.38;101960.06;5283303;28;20087;-69
2023/06/03 07:53:04;;;;;;;5.35;2.47;;;;;;;17.14;45.18;101964.22;5283599;28;20040;-67
2023/06/03 07:55:44;;;;;;;7.30;2.65;;;;;;;17.16;43.38;101967.69;5299811;28;20422;-68
2023/06/03 07:58:16;;;;;;;7.68;2.15;;;;;;;17.26;42.81;101966.63;5283202;28;20028;-67
2023/06/03 08:00:54;;;;;;;5.57;2.75;;;;;;;17.45;43.15;101961.81;5283796;28;20037;-67
2023/06/03 08:03:26;;;;;;;8.75;2.63;;;;;;;17.44;42.26;101967.97;5283411;28;20020;-66
2023/06/03 08:05:57;;;;;;;4.95;1.85;;;;;;;17.55;41.78;101959.81;5283705;28;20029;-67
2023/06/03 08:08:33;;;;;;;5.90;2.13;;;;;;;17.79;40.47;101971.56;5283671;28;20475;-67
2023/06/03 08:11:04;;;;;;;7.78;2.10;;;;;;;17.93;41.30;101967.75;5283462;28;20052;-69
2023/06/03 08:13:36;;;;;;;3.10;1.77;;;;;;;17.97;40.06;101967.63;5282386;28;20056;-68
2023/06/03 08:16:08;;;;;;;6.65;2.05;;;;;;;18.09;39.74;101968.22;5282931;28;20048;-70
2023/06/03 08:18:47;;;;;;;5.13;2.17;;;;;;;18.17;38.63;101971.53;5283493;28;20024;-69
2023/06/03 08:21:18;;;;;;;4.03;2.08;;;;;;;18.31;38.41;101961.47;5283283;28;20028;-68
2023/06/03 08:23:50;;;;;;;3.37;1.77;;;;;;;18.39;38.03;101964.78;5283671;28;20479;-67
2023/06/03 08:26:21;;;;;;;5.93;1.60;;;;;;;18.52;38.88;101957.41;5283030;28;20052;-67
2023/06/03 08:28:53;;;;;;;;;;;;;;;18.64;39.35;101956.19;5281987;28;20048;-67
2023/06/03 08:31:25;;;;;;;7.40;2.50;;;;;;;18.72;36.89;101962.16;5283236;28;20318;-67
2023/06/03 08:33:56;;;;;;;6.43;1.57;;;;;;;18.71;36.25;101948.97;5281791;28;20036;-68
2023/06/03 08:36:28;;;;;;;4.13;1.50;;;;;;;18.77;36.90;101968.16;5281681;28;20030;-67
2023/06/03 08:38:59;;;;;;;4.97;1.70;;;;;;;18.81;36.28;101957.50;5283243;28;20395;-67
2023/06/03 08:41:39;;;;;;;5.27;1.73;;;;;;;18.85;37.29;101957.41;5283239;28;20035;-67
2023/06/03 08:44:26;;;;;;;5.50;2.05;;;;;;;18.90;35.13;101937.00;5282842;28;20036;-66
2023/06/03 08:47:11;;;;;;;5.13;2.20;;;;;;;18.88;35.73;101949.38;5283202;28;20119;-67
2023/06/03 08:50:05;;;;;;;3.88;1.73;;;;;;;19.05;35.34;101948.88;5283198;28;20024;-67
2023/06/03 08:52:42;;;;;;;6.78;1.65;;;;;;;19.18;35.86;101952.03;5283195;28;20025;-67
2023/06/03 08:55:18;;;;;;;8.32;2.22;;;;;;;19.27;35.63;101954.41;5283080;28;20389;-66
2023/06/03 08:58:28;;;;;;;8.32;2.10;;;;;;;19.39;35.92;101947.00;5283000;28;20025;-68
2023/06/03 09:01:02;;;;;;;6.40;2.00;;;;;;;19.34;34.32;101957.72;5273853;28;20392;-67
2023/06/03 09:03:34;;;;;;;8.13;2.15;;;;;;;19.63;36.06;101942.72;5281649;28;20040;-67
2023/06/03 09:06:06;;;;;;;;;;;;;;;19.75;35.22;101952.88;5283093;28;20036;-67
2023/06/03 09:08:39;;;;;;;5.03;1.98;;;;;;;19.62;33.43;101948.91;5282555;28;19931;-69
2023/06/03 09:11:11;;;;;;;18.52;2.33;;;;;;;19.68;34.11;101952.22;5281449;28;20056;-66
2023/06/03 09:13:44;;;;;;;5.80;1.60;;;;;;;19.92;34.42;101936.47;5282641;28;20540;-67
2023/06/03 09:16:17;;;;;;;9.77;2.15;;;;;;;20.01;33.71;101952.06;5280294;28;20395;-67
2023/06/03 09:18:52;;;;;;;5.70;2.03;;;;;;;20.01;32.98;101946.75;5282588;28;20376;-66
2023/06/03 09:21:23;;;;;;;4.47;1.83;;;;;;;19.98;32.24;101948.63;5281177;28;20020;-66
2023/06/03 09:23:55;;;;;;;4.33;1.53;;;;;;;19.89;31.75;101959.53;5281875;28;20543;-67
2023/06/03 09:26:27;;;;;;;5.75;1.85;;;;;;;19.92;32.17;101959.44;5281424;28;20140;-67
2023/06/03 09:28:59;;;;;;;4.00;1.70;;;;;;;20.05;32.97;101955.47;5283061;28;20132;-66
2023/06/03 09:31:30;;;;;;;4.87;1.70;;;;;;;20.02;31.81;101955.56;5285544;28;20036;-67
2023/06/03 09:34:02;;;;;;;2.93;1.77;;;;;;;20.00;30.22;101952.09;5286020;28;20029;-68
2023/06/03 09:36:44;;;;;;;3.80;1.38;;;;;;;20.03;31.40;101952.88;5285138;28;20044;-66
2023/06/03 09:39:32;;;;;;;5.82;1.92;;;;;;;20.35;31.43;101950.00;5286463;28;20562;-67
2023/06/03 09:42:04;;;;;;;4.38;1.63;;;;;;;20.47;30.11;101946.94;5286033;28;20032;-68
2023/06/03 09:44:46;;;;;;;3.97;1.83;;;;;;;20.33;29.62;101943.91;5284385;28;20464;-67
2023/06/03 09:47:17;;;;;;;5.13;1.40;;;;;;;20.58;32.16;101938.59;5285580;28;20028;-67
2023/06/03 09:50:02;;;;;;;3.43;1.80;;;;;;;20.70;31.43;101939.97;5284374;28;20040;-67
2023/06/03 09:52:35;;;;;;;3.35;1.70;;;;;;;20.71;29.60;101924.00;5286353;28;20032;-66
2023/06/03 09:55:08;;;;;;;6.65;2.03;;;;;;;20.63;29.45;101938.44;5284990;28;20035;-67
2023/06/03 09:57:40;;;;;;;9.48;2.13;;;;;;;20.81;30.18;101939.56;5286139;28;20064;-67
2023/06/03 10:00:13;;;;;;;9.48;1.63;;;;;;;21.14;29.39;101942.72;5285152;28;20032;-68
2023/06/03 10:02:44;;;;;;;;;;;;;;;21.87;28.13;101953.13;5286132;28;20033;-66
2023/06/03 10:05:29;;;;;;;9.33;1.77;;;;;;;23.48;27.48;101953.00;5285182;28;19915;-66
2023/06/03 10:08:05;;;;;;;7.45;1.70;;;;;;;24.91;25.12;101951.00;5285824;28;20494;-66
2023/06/03 10:10:54;;;;;;;6.15;1.50;;;;;;;25.64;23.79;101947.81;5284814;28;20502;-65
2023/06/03 10:13:26;;;;;;;4.22;1.85;;;;;;;26.20;21.21;101956.13;5285377;28;20032;-67
2023/06/03 10:16:01;;;;;;;5.70;1.80;;;;;;;27.17;21.81;101954.59;5283392;28;20024;-68
2023/06/03 10:18:37;;;;;;;3.38;1.85;;;;;;;26.82;20.19;101946.16;5285599;28;20039;-66
2023/06/03 10:21:13;;;;;;;7.78;2.33;;;;;;;27.74;20.45;101950.00;5284660;28;20416;-68
2023/06/03 10:23:44;;;;;;;2.50;1.50;;;;;;;28.28;18.94;101941.88;5284737;28;20443;-67
2023/06/03 10:26:16;;;;;;;7.32;2.20;;;;;;;28.03;19.38;101953.47;5284455;28;20079;-67
2023/06/03 10:28:49;;;;;;;;;;;;;;;29.73;19.19;101944.84;5286032;28;20152;-67
2023/06/03 10:31:21;;;;;;;;;;;;;;;29.48;17.85;101945.84;5283835;28;19912;-66
2023/06/03 10:33:54;;;;;;;2.78;1.70;;;;;;;28.52;18.55;101928.56;5285071;28;19917;-68
2023/06/03 10:36:26;;;;;;;4.38;1.60;;;;;;;29.04;18.96;101940.06;5284299;28;20085;-66
2023/06/03 10:39:02;;;;;;;;;;;;;;;30.98;18.88;101939.66;5285134;28;20037;-66
2023/06/03 10:41:37;;;;;;;4.63;1.73;;;;;;;29.37;18.02;101952.03;5284408;28;19916;-67
2023/06/03 10:44:09;;;;;;;2.63;1.27;;;;;;;29.69;17.84;101943.38;5284146;28;20028;-67
2023/06/03 10:46:45;;;;;;;;;;;;;;;32.08;18.47;101939.50;5284593;28;20498;-67
2023/06/03 10:49:19;;;;;;;2.83;1.48;;;;;;;30.71;17.10;101938.22;5283547;28;20232;-67
2023/06/03 10:52:05;;;;;;;2.15;1.33;;;;;;;31.06;18.08;101942.59;5284081;28;20040;-67
2023/06/03 10:55:14;;;;;;;2.63;1.52;;;;;;;31.77;17.15;101940.28;5283826;28;20376;-67
2023/06/03 10:57:49;;;;;;;1.63;1.30;;;;;;;30.81;17.63;101935.63;5284557;28;20037;-67
2023/06/03 11:00:58;;;;;;;5.80;1.52;;;;;;;31.95;15.88;101929.75;5283770;28;20024;-66
2023/06/03 11:03:53;;;;;;;5.22;1.40;;;;;;;32.47;16.02;101937.84;5284146;28;20074;-67
2023/06/03 11:06:28;;;;;;;5.72;1.63;;;;;;;31.55;15.74;101943.06;5274938;28;20083;-67
2023/06/03 11:09:03;;;;;;;2.90;1.42;;;;;;;31.72;14.73;101942.50;5284297;28;20032;-67
2023/06/03 11:11:41;;;;;;;3.53;1.50;;;;;;;31.88;14.98;101933.97;5283624;28;20475;-67
2023/06/03 11:14:42;;;;;;;2.47;1.42;;;;;;;32.72;13.96;101925.78;5282588;28;20035;-66
2023/06/03 11:17:21;;;;;;;2.37;1.67;;;;;;;32.57;14.98;101929.78;5283819;28;20028;-67
2023/06/03 11:19:55;;;;;;;3.33;1.50;;;;;;;32.14;14.16;101939.84;5283728;28;20372;-67
2023/06/03 11:22:27;;;;;;;5.55;1.90;;;;;;;32.47;13.55;101931.63;5284343;28;20478;-66
2023/06/03 11:24:59;;;;;;;3.27;1.27;;;;;;;32.38;14.51;101941.38;5283584;28;20029;-66
2023/06/03 11:27:31;;;;;;;4.30;1.65;;;;;;;33.05;13.75;101930.97;5283274;28;20302;-68
2023/06/03 11:30:06;;;;;;;6.18;1.50;;;;;;;32.52;14.83;101940.16;5283030;28;20036;-67
2023/06/03 11:32:38;;;;;;;2.83;1.50;;;;;;;32.63;14.82;101931.13;5283810;28;20446;-69
2023/06/03 11:35:09;;;;;;;3.28;1.50;;;;;;;32.47;13.80;101929.75;5248318;28;20035;-67
2023/06/03 11:37:40;;;;;;;1.77;1.38;;;;;;;32.42;14.13;101923.06;5283354;28;20029;-66
2023/06/03 11:40:14;;;;;;;2.83;1.40;;;;;;;33.95;15.40;101932.56;5283150;28;20487;-68
2023/06/03 11:42:49;;;;;;;4.80;1.60;;;;;;;33.38;13.59;101929.75;5283479;28;20119;-67
2023/06/03 11:45:21;;;;;;;5.93;2.00;;;;;;;34.16;13.87;101942.34;5282562;28;20051;-67
2023/06/03 11:47:56;;;;;;;4.03;1.60;;;;;;;34.58;13.34;101938.38;5283719;28;20361;-67
2023/06/03 11:50:30;;;;;;;3.40;1.50;;;;;;;34.99;13.28;101944.31;5282947;28;20040;-67
2023/06/03 11:53:02;;;;;;;3.38;1.70;;;;;;;34.40;12.31;101930.19;5282456;28;20077;-67
2023/06/03 11:55:35;;;;;;;3.30;1.80;;;;;;;34.96;12.91;101931.91;5282881;28;20040;-66